Portada
METAR-TAF:

METAR-TAF

Aeroports :

Addis Abeba, Etiòpia

latitud: 08-59N, longitud: 038-48E, altitud: 2355 m

Observació

L'informe es va fer fa 1 hora i 46 minuts, a les 13:00 UTC
Vent 12 kt del Sud/Sud-Est
Temperatura 27°C
Humitat 34%
Pressió 1023 hPa
Visibilitat 10 km o més
Cel ennuvolat a una alçada de 2500 ft

METAR: HAAB 291300Z 16012KT 9999 BKN025 27/10 Q1023 NOSIG

Hora: 17:46 (14:46 UTC)

Pronòstic

L'informe es va fer fa 5 hores i 16 minuts, a les 09:30 UTC
Pronòstic vàlid del 29 a les 12 UTC al 30 a les 18 UTC
Vent 7 kt del Sud/Sud-Est
Visibilitat 10 km o més
Núvols disperses a una alçada de 2800 ft
Núvols disperses a una alçada de 10000 ft
Evolucionant progressivament
l' 29 a les 12 UTC al 29 a les 15 UTC
Vent 8 kt del Est/Sud-Est
Cel ennuvolat a una alçada de 3000 ft

TAF: HAAB 290930Z 2912/3018 16007KT 9999 SCT028 SCT100 BECMG 2912/2915 11008KT BKN030

Observacions i pronòstics meteorològics de més de 4000 aeroports (METAR i TAF).

Les estacions disponibles són els punts grocs i vermells al mapa.

Posi el ratolí al punt desitjat per veure el nom de l'estació.

Feu clic per veure les observacions i els pronòstics meteorològics.

Per canviar el mapa: feu clic els botons verds amb una creu de color negre per apropar; al botó verd amb un guió per allunyar la imatge; o en les fletxes verdes per a mapes adjacents.


METAR-TAF: